Time;durP1;ratioP1;P1;durP2;ratioP2;P2;SDS_P1;SDS_P2;PMS_P1;PMS_P2;Temp;Humidity;BMP_temperature;BMP_pressure;BME280_temperature;BME280_humidity;BME280_pressure;Samples;Min_cycle;Max_cycle;Signal;HPM_P1;HPM_P2
2022/08/09 00:00:09;;;;;;;8.43;4.75;;;22.60;99.90;;;;;;5065470;28;20060;-76
2022/08/09 00:02:35;;;;;;;6.07;4.35;;;22.50;99.90;;;;;;5067213;28;20116;-75
2022/08/09 00:05:01;;;;;;;6.95;4.80;;;22.50;99.90;;;;;;5066125;28;20115;-76
2022/08/09 00:07:27;;;;;;;7.10;3.83;;;22.40;99.90;;;;;;5066587;28;20593;-76
2022/08/09 00:09:52;;;;;;;7.43;4.38;;;22.60;99.90;;;;;;5063737;28;20127;-75
2022/08/09 00:12:18;;;;;;;6.07;3.80;;;22.50;99.90;;;;;;5066417;28;20112;-75
2022/08/09 00:14:44;;;;;;;6.80;3.72;;;22.50;99.90;;;;;;5063778;28;20040;-75
2022/08/09 00:17:09;;;;;;;5.88;4.28;;;22.50;99.90;;;;;;5062230;28;20039;-75
2022/08/09 00:19:35;;;;;;;6.20;4.28;;;22.50;99.90;;;;;;5065084;28;20025;-76
2022/08/09 00:22:01;;;;;;;6.55;4.43;;;22.40;99.90;;;;;;5068736;28;20087;-75
2022/08/09 00:24:28;;;;;;;7.60;4.03;;;22.20;99.90;;;;;;5064597;28;20044;-75
2022/08/09 00:26:55;;;;;;;6.22;3.72;;;22.20;99.90;;;;;;5064906;28;20052;-76
2022/08/09 00:29:20;;;;;;;5.85;3.75;;;22.30;99.90;;;;;;5070104;28;20036;-76
2022/08/09 00:31:46;;;;;;;8.27;4.57;;;22.30;99.90;;;;;;5069425;28;20028;-75
2022/08/09 00:34:11;;;;;;;6.47;4.22;;;22.30;99.90;;;;;;5067547;28;20043;-76
2022/08/09 00:36:37;;;;;;;6.47;4.40;;;22.20;99.90;;;;;;5071390;28;20090;-76
2022/08/09 00:39:03;;;;;;;7.53;4.10;;;22.10;99.90;;;;;;5063217;28;20048;-76
2022/08/09 00:41:29;;;;;;;5.82;4.57;;;22.20;99.90;;;;;;5047740;28;20478;-76
2022/08/09 00:43:54;;;;;;;8.52;4.53;;;22.10;99.90;;;;;;5072113;28;20032;-76
2022/08/09 00:46:20;;;;;;;6.70;4.32;;;21.90;99.90;;;;;;5069512;28;20485;-76
2022/08/09 00:48:46;;;;;;;7.28;3.85;;;21.90;99.90;;;;;;5062215;28;20028;-75
2022/08/09 00:51:15;;;;;;;8.82;5.50;;;21.90;99.90;;;;;;5068455;28;20108;-76
2022/08/09 00:53:40;;;;;;;5.80;4.30;;;21.90;99.90;;;;;;5062236;28;20085;-75
2022/08/09 00:56:07;;;;;;;6.13;4.32;;;21.90;99.90;;;;;;5058144;28;20033;-75
2022/08/09 00:58:36;;;;;;;6.57;4.43;;;22.00;99.90;;;;;;5063300;28;20201;-75
2022/08/09 01:01:10;;;;;;;6.72;4.32;;;21.90;99.90;;;;;;5059127;28;20060;-76
2022/08/09 01:04:01;;;;;;;6.55;4.45;;;22.00;99.90;;;;;;5060800;28;20036;-76
2022/08/09 01:07:05;;;;;;;5.72;4.38;;;21.90;99.90;;;;;;5064560;28;20049;-75
2022/08/09 01:09:37;;;;;;;6.32;4.35;;;22.00;99.90;;;;;;5057423;28;20168;-75
2022/08/09 01:12:23;;;;;;;6.75;4.75;;;22.00;99.90;;;;;;5067719;28;20032;-75
2022/08/09 01:15:07;;;;;;;7.57;5.25;;;22.00;99.90;;;;;;5064895;28;20024;-75
2022/08/09 01:17:42;;;;;;;6.80;4.85;;;22.00;99.90;;;;;;5065324;28;20490;-76
2022/08/09 01:20:26;;;;;;;8.27;5.05;;;22.00;99.90;;;;;;5060792;28;20025;-75
2022/08/09 01:23:01;;;;;;;6.35;4.90;;;22.00;99.90;;;;;;5064342;28;20024;-75
2022/08/09 01:26:09;;;;;;;6.82;4.95;;;22.00;99.90;;;;;;5064616;28;20032;-75
2022/08/09 01:28:39;;;;;;;7.13;4.70;;;22.00;99.90;;;;;;5056112;28;20032;-76
2022/08/09 01:31:09;;;;;;;8.35;4.45;;;22.00;99.90;;;;;;5066397;28;20580;-76
2022/08/09 01:33:39;;;;;;;8.18;4.30;;;22.00;99.90;;;;;;5064041;28;20111;-75
2022/08/09 01:36:12;;;;;;;5.57;3.95;;;21.90;99.90;;;;;;5063774;28;20031;-76
2022/08/09 01:38:44;;;;;;;7.95;4.25;;;21.90;99.90;;;;;;5067662;28;20036;-75
2022/08/09 01:41:17;;;;;;;7.53;4.25;;;21.90;99.90;;;;;;5066359;28;20020;-76
2022/08/09 01:43:46;;;;;;;6.65;4.47;;;21.90;99.90;;;;;;5064010;28;20028;-75
2022/08/09 01:46:14;;;;;;;6.43;4.13;;;21.90;99.90;;;;;;5066280;28;20033;-76
2022/08/09 01:48:41;;;;;;;6.60;4.35;;;21.80;99.90;;;;;;5068514;28;20078;-76
2022/08/09 01:51:08;;;;;;;5.60;4.20;;;21.90;99.90;;;;;;5067048;28;20028;-76
2022/08/09 01:53:35;;;;;;;8.48;3.90;;;21.80;99.90;;;;;;5064115;28;20103;-76
2022/08/09 01:56:03;;;;;;;7.88;4.05;;;21.70;99.90;;;;;;5063220;28;20033;-76
2022/08/09 01:58:31;;;;;;;6.03;3.92;;;21.70;99.90;;;;;;5063940;28;20033;-75
2022/08/09 02:00:58;;;;;;;6.60;4.32;;;21.70;99.90;;;;;;5060965;28;20029;-75
2022/08/09 02:03:28;;;;;;;7.10;3.97;;;21.80;99.90;;;;;;5066638;28;20029;-75
2022/08/09 02:05:55;;;;;;;11.73;4.82;;;21.70;99.90;;;;;;5062576;28;20041;-76
2022/08/09 02:08:23;;;;;;;6.50;4.43;;;21.50;99.90;;;;;;5057401;28;20522;-76
2022/08/09 02:10:53;;;;;;;6.35;4.25;;;21.50;99.90;;;;;;5064620;28;20119;-75
2022/08/09 02:13:21;;;;;;;7.70;4.68;;;21.40;99.90;;;;;;5060537;28;20025;-76
2022/08/09 02:15:50;;;;;;;7.28;3.90;;;21.30;99.90;;;;;;5065409;28;20029;-76
2022/08/09 02:18:19;;;;;;;6.20;3.92;;;21.20;99.90;;;;;;5067081;28;20040;-75
2022/08/09 02:20:50;;;;;;;6.47;4.15;;;21.30;99.90;;;;;;5066768;28;20050;-76
2022/08/09 02:23:36;;;;;;;7.53;4.50;;;21.30;99.90;;;;;;5059415;28;20032;-75
2022/08/09 02:26:05;;;;;;;6.82;4.75;;;21.20;99.90;;;;;;5066356;28;20034;-75
2022/08/09 02:28:40;;;;;;;6.72;4.32;;;21.10;99.90;;;;;;5060183;28;20031;-76
2022/08/09 02:31:29;;;;;;;13.13;4.80;;;21.10;99.90;;;;;;5055701;28;20037;-75
2022/08/09 02:33:58;;;;;;;7.57;4.80;;;21.20;99.90;;;;;;5063042;28;20024;-75
2022/08/09 02:36:33;;;;;;;7.43;4.80;;;21.30;99.90;;;;;;5062393;28;20370;-75
2022/08/09 02:39:04;;;;;;;6.95;4.93;;;21.20;99.90;;;;;;5061588;28;20040;-75
2022/08/09 02:41:44;;;;;;;6.35;4.57;;;21.10;99.90;;;;;;5058626;28;20037;-75
2022/08/09 02:44:19;;;;;;;6.35;4.65;;;21.00;99.90;;;;;;5062684;28;20033;-76
2022/08/09 02:46:48;;;;;;;7.60;4.75;;;21.00;99.90;;;;;;5067420;28;20123;-76
2022/08/09 02:49:16;;;;;;;6.53;4.53;;;20.90;99.90;;;;;;5062457;28;20036;-75
2022/08/09 02:51:46;;;;;;;6.43;4.45;;;20.90;99.90;;;;;;5065010;28;20053;-76
2022/08/09 02:54:14;;;;;;;10.23;5.13;;;21.00;99.90;;;;;;5064584;28;20429;-74
2022/08/09 02:56:44;;;;;;;7.18;5.20;;;21.00;99.90;;;;;;5065185;28;20120;-76
2022/08/09 02:59:11;;;;;;;6.40;4.82;;;20.90;99.90;;;;;;5067466;28;20048;-76
2022/08/09 03:01:38;;;;;;;8.55;5.55;;;20.80;99.90;;;;;;5068964;28;20033;-74
2022/08/09 03:04:06;;;;;;;7.72;4.82;;;20.70;99.90;;;;;;5060373;28;20043;-74
2022/08/09 03:06:33;;;;;;;7.03;4.72;;;20.80;99.90;;;;;;5058585;28;20453;-74
2022/08/09 03:09:00;;;;;;;5.95;3.90;;;20.70;99.90;;;;;;5061060;28;20040;-75
2022/08/09 03:11:27;;;;;;;6.15;4.65;;;20.80;99.90;;;;;;5058356;28;20029;-74
2022/08/09 03:13:53;;;;;;;7.00;4.63;;;20.90;99.90;;;;;;5061554;28;20036;-75
2022/08/09 03:16:20;;;;;;;7.05;4.72;;;21.00;99.90;;;;;;5055934;28;20611;-75
2022/08/09 03:18:46;;;;;;;5.78;4.43;;;20.90;99.90;;;;;;5055270;28;20043;-75
2022/08/09 03:21:15;;;;;;;6.47;4.57;;;20.80;99.90;;;;;;5059419;28;20043;-75
2022/08/09 03:23:45;;;;;;;7.05;4.40;;;20.70;99.90;;;;;;5053678;28;20048;-75
2022/08/09 03:26:15;;;;;;;7.25;4.25;;;20.60;99.90;;;;;;5058000;28;20029;-75
2022/08/09 03:28:42;;;;;;;7.25;4.70;;;20.70;99.90;;;;;;5065940;28;20128;-74
2022/08/09 03:31:09;;;;;;;9.32;5.57;;;20.90;99.90;;;;;;5053814;28;20401;-76
2022/08/09 03:33:36;;;;;;;6.88;4.40;;;20.90;99.90;;;;;;5055597;28;20028;-75
2022/08/09 03:36:02;;;;;;;6.07;4.25;;;20.90;99.90;;;;;;5061942;28;20028;-74
2022/08/09 03:38:28;;;;;;;7.10;5.10;;;21.00;99.90;;;;;;5051632;28;20041;-74
2022/08/09 03:40:54;;;;;;;7.47;5.20;;;20.90;99.90;;;;;;5059049;28;20028;-74
2022/08/09 03:43:20;;;;;;;8.20;4.88;;;20.80;99.90;;;;;;5054997;28;20103;-75
2022/08/09 03:45:46;;;;;;;7.10;4.38;;;20.90;99.90;;;;;;5050152;28;20044;-75
2022/08/09 03:48:11;;;;;;;7.35;4.53;;;20.80;99.90;;;;;;5057469;28;20032;-74
2022/08/09 03:50:40;;;;;;;7.90;4.50;;;20.50;99.90;;;;;;5057537;28;20472;-74
2022/08/09 03:53:08;;;;;;;6.35;4.25;;;20.50;99.90;;;;;;5046996;28;20105;-75
2022/08/09 03:55:34;;;;;;;7.88;4.57;;;20.60;99.90;;;;;;5055813;28;20044;-75
2022/08/09 03:58:00;;;;;;;7.28;4.03;;;20.70;99.90;;;;;;5055339;28;20177;-75
2022/08/09 04:00:26;;;;;;;7.72;4.28;;;20.80;99.90;;;;;;5053337;28;20048;-74
2022/08/09 04:02:54;;;;;;;7.68;5.07;;;20.90;99.90;;;;;;5053896;28;20045;-74
2022/08/09 04:05:20;;;;;;;7.53;4.60;;;20.90;99.90;;;;;;5060441;28;20077;-74
2022/08/09 04:07:46;;;;;;;6.72;4.65;;;20.90;99.90;;;;;;5049886;28;20036;-74
2022/08/09 04:10:13;;;;;;;8.48;5.40;;;20.80;99.90;;;;;;5056397;28;20070;-75
2022/08/09 04:12:45;;;;;;;7.55;5.25;;;20.70;99.90;;;;;;5055967;28;20049;-75
2022/08/09 04:15:12;;;;;;;6.82;4.82;;;20.60;99.90;;;;;;5064609;28;20052;-74
2022/08/09 04:17:39;;;;;;;9.65;4.90;;;20.50;99.90;;;;;;5062634;28;20044;-74
2022/08/09 04:20:07;;;;;;;7.60;5.10;;;20.40;99.90;;;;;;5064633;28;20029;-75
2022/08/09 04:22:32;;;;;;;7.82;4.63;;;20.20;99.90;;;;;;5055128;28;20494;-75
2022/08/09 04:24:59;;;;;;;8.23;5.18;;;20.10;99.90;;;;;;5065215;28;20051;-75
2022/08/09 04:27:25;;;;;;;6.57;4.80;;;20.10;99.90;;;;;;5063721;28;20033;-75
2022/08/09 04:29:50;;;;;;;10.20;4.93;;;20.10;99.90;;;;;;5063301;28;20158;-75
2022/08/09 04:32:16;;;;;;;7.13;5.07;;;20.10;99.90;;;;;;5067824;28;20028;-75
2022/08/09 04:34:42;;;;;;;7.28;4.60;;;20.00;99.90;;;;;;5059843;28;20059;-75
2022/08/09 04:37:08;;;;;;;8.68;5.38;;;20.20;99.90;;;;;;5060807;28;20083;-74
2022/08/09 04:39:33;;;;;;;6.82;4.95;;;20.10;99.90;;;;;;5053451;28;20028;-75
2022/08/09 04:41:59;;;;;;;7.38;5.22;;;20.30;99.90;;;;;;5068471;28;20066;-74
2022/08/09 04:44:25;;;;;;;7.68;5.22;;;20.30;99.90;;;;;;5058405;28;20119;-74
2022/08/09 04:46:51;;;;;;;7.93;5.53;;;20.20;99.90;;;;;;5061518;28;20031;-74
2022/08/09 04:49:17;;;;;;;8.02;5.47;;;20.10;99.90;;;;;;5063977;28;20028;-74
2022/08/09 04:51:42;;;;;;;7.63;4.90;;;20.10;99.90;;;;;;5060792;28;20505;-75
2022/08/09 04:54:08;;;;;;;8.10;4.35;;;20.00;99.90;;;;;;5059955;28;20040;-75
2022/08/09 04:56:34;;;;;;;8.00;5.22;;;20.00;99.90;;;;;;5053992;28;20122;-75
2022/08/09 04:58:59;;;;;;;7.50;4.82;;;19.90;99.90;;;;;;5062577;28;20052;-75
2022/08/09 05:01:25;;;;;;;6.28;4.60;;;19.80;99.90;;;;;;5058131;28;21073;-74
2022/08/09 05:03:51;;;;;;;7.93;5.00;;;19.90;99.90;;;;;;5066265;28;20490;-74
2022/08/09 05:06:16;;;;;;;8.45;4.93;;;20.00;99.90;;;;;;5056718;28;20036;-74
2022/08/09 05:08:42;;;;;;;9.45;4.47;;;20.20;99.90;;;;;;5059164;28;20518;-74
2022/08/09 05:11:08;;;;;;;7.85;4.93;;;20.40;99.90;;;;;;5064021;28;20032;-74
2022/08/09 05:13:34;;;;;;;6.93;5.10;;;20.40;99.90;;;;;;5062984;28;20040;-75
2022/08/09 05:16:00;;;;;;;10.55;5.00;;;20.50;99.90;;;;;;5056543;28;20036;-74
2022/08/09 05:18:28;;;;;;;9.85;4.80;;;20.50;99.90;;;;;;5056772;28;20450;-75
2022/08/09 05:21:00;;;;;;;6.68;5.10;;;20.50;99.90;;;;;;5062954;28;20521;-75
2022/08/09 05:23:26;;;;;;;7.97;4.80;;;20.30;99.90;;;;;;5060872;28;20029;-75
2022/08/09 05:25:52;;;;;;;7.43;4.70;;;20.20;99.90;;;;;;5061696;28;20147;-75
2022/08/09 05:28:19;;;;;;;7.65;5.00;;;20.10;99.90;;;;;;5063279;28;20047;-76
2022/08/09 05:30:45;;;;;;;8.07;4.60;;;20.00;99.90;;;;;;5068097;28;20041;-75
2022/08/09 05:33:11;;;;;;;7.75;4.47;;;20.00;99.90;;;;;;5071942;28;20032;-76
2022/08/09 05:35:37;;;;;;;7.68;5.20;;;20.20;99.90;;;;;;5060605;28;20777;-73
2022/08/09 05:38:02;;;;;;;7.97;4.97;;;20.20;99.90;;;;;;5058901;28;20127;-72
2022/08/09 05:40:28;;;;;;;7.97;5.25;;;20.10;99.90;;;;;;5055756;28;20038;-72
2022/08/09 05:42:56;;;;;;;5.85;4.35;;;20.00;99.90;;;;;;5060901;28;20081;-72
2022/08/09 05:45:23;;;;;;;8.73;4.90;;;20.10;99.90;;;;;;5056620;28;20159;-72
2022/08/09 05:47:48;;;;;;;8.60;5.45;;;20.20;99.90;;;;;;5062417;28;20075;-72
2022/08/09 05:50:14;;;;;;;6.88;4.40;;;20.20;99.90;;;;;;5053616;28;20060;-72
2022/08/09 05:52:41;;;;;;;7.35;4.78;;;20.20;99.90;;;;;;5059868;28;20037;-72
2022/08/09 05:55:07;;;;;;;8.32;5.63;;;20.10;99.90;;;;;;5057482;28;20032;-72
2022/08/09 05:57:36;;;;;;;13.52;5.28;;;20.10;99.90;;;;;;5053145;28;20047;-72
2022/08/09 06:00:04;;;;;;;8.13;4.70;;;20.20;99.90;;;;;;5057807;28;20025;-72
2022/08/09 06:02:30;;;;;;;8.13;4.70;;;20.20;99.90;;;;;;5054671;28;20048;-72
2022/08/09 06:04:56;;;;;;;9.13;4.72;;;20.20;99.90;;;;;;5046217;28;20033;-72
2022/08/09 06:07:21;;;;;;;7.93;4.72;;;20.30;99.90;;;;;;5055065;28;20116;-72
2022/08/09 06:09:48;;;;;;;6.68;4.78;;;20.60;99.90;;;;;;5057409;28;20040;-72
2022/08/09 06:12:13;;;;;;;7.97;4.57;;;20.70;99.90;;;;;;5051227;28;20025;-72
2022/08/09 06:14:39;;;;;;;8.73;5.32;;;20.70;99.90;;;;;;5059262;28;20078;-72
2022/08/09 06:17:05;;;;;;;8.68;5.28;;;20.80;99.90;;;;;;5055671;28;20119;-72
2022/08/09 06:19:30;;;;;;;7.97;4.53;;;20.90;99.90;;;;;;5051706;28;20033;-72
2022/08/09 06:21:56;;;;;;;6.85;4.50;;;21.00;99.90;;;;;;5056544;28;20033;-72
2022/08/09 06:24:22;;;;;;;9.20;4.57;;;21.00;99.90;;;;;;5057422;28;20036;-72
2022/08/09 06:26:47;;;;;;;6.30;4.55;;;21.00;99.90;;;;;;5048726;28;20040;-72
2022/08/09 06:29:13;;;;;;;8.30;5.18;;;21.20;99.90;;;;;;5059948;28;20505;-72
2022/08/09 06:31:39;;;;;;;6.28;4.47;;;21.30;99.90;;;;;;5052400;28;20085;-72
2022/08/09 06:34:05;;;;;;;8.23;4.65;;;21.40;99.90;;;;;;5053354;28;20486;-72
2022/08/09 06:36:31;;;;;;;9.93;5.45;;;21.60;99.90;;;;;;5062070;28;20600;-72
2022/08/09 06:38:57;;;;;;;9.13;4.32;;;21.80;99.90;;;;;;5059279;28;20036;-72
2022/08/09 06:41:23;;;;;;;7.97;4.90;;;21.90;99.90;;;;;;5057063;28;20578;-72
2022/08/09 06:43:49;;;;;;;8.02;4.30;;;22.10;99.90;;;;;;5049378;28;20112;-72
2022/08/09 06:46:16;;;;;;;6.78;4.38;;;22.30;99.90;;;;;;5048803;28;20109;-72
2022/08/09 06:48:42;;;;;;;7.28;4.38;;;22.50;99.90;;;;;;5055103;28;20090;-72
2022/08/09 06:51:11;;;;;;;7.93;4.53;;;22.60;99.90;;;;;;5055806;28;20513;-72
2022/08/09 06:53:37;;;;;;;6.95;4.78;;;22.70;99.90;;;;;;5055606;28;20036;-73
2022/08/09 06:56:03;;;;;;;8.23;4.90;;;22.90;99.90;;;;;;5057540;28;20029;-73
2022/08/09 06:58:29;;;;;;;7.07;5.00;;;23.20;99.90;;;;;;5050899;28;20096;-73
2022/08/09 07:00:55;;;;;;;7.30;4.60;;;23.30;99.90;;;;;;5060982;28;20032;-73
2022/08/09 07:03:22;;;;;;;6.70;4.10;;;23.40;99.90;;;;;;5057586;28;20033;-73
2022/08/09 07:05:48;;;;;;;6.28;4.28;;;23.60;99.90;;;;;;5052264;28;20072;-72
2022/08/09 07:08:14;;;;;;;6.57;4.72;;;23.60;99.90;;;;;;5056251;28;20060;-73
2022/08/09 07:10:39;;;;;;;8.00;4.10;;;23.60;99.90;;;;;;5054793;28;20141;-73
2022/08/09 07:13:05;;;;;;;7.13;4.47;;;23.90;99.90;;;;;;5051669;28;20071;-73
2022/08/09 07:15:31;;;;;;;5.20;3.80;;;24.40;99.90;;;;;;5035623;28;20044;-73
2022/08/09 07:17:56;;;;;;;5.38;4.22;;;25.40;98.50;;;;;;5050891;28;20040;-73
2022/08/09 07:20:24;;;;;;;5.60;4.05;;;26.60;97.10;;;;;;5059406;28;20094;-73
2022/08/09 07:22:50;;;;;;;5.70;4.00;;;28.10;95.50;;;;;;5052091;28;20024;-72
2022/08/09 07:25:16;;;;;;;5.30;3.92;;;29.50;94.10;;;;;;5052283;28;20077;-72
2022/08/09 07:27:42;;;;;;;6.28;4.30;;;30.00;92.70;;;;;;5044463;28;20048;-72
2022/08/09 07:30:12;;;;;;;9.35;4.07;;;30.70;92.00;;;;;;5053653;28;20063;-73
2022/08/09 07:32:38;;;;;;;5.32;3.60;;;31.20;91.50;;;;;;5051121;28;20560;-72
2022/08/09 07:35:06;;;;;;;6.43;4.32;;;31.40;91.20;;;;;;5051660;28;20079;-73
2022/08/09 07:37:32;;;;;;;7.28;4.30;;;30.60;90.80;;;;;;5061986;28;20059;-74
2022/08/09 07:39:57;;;;;;;6.55;4.10;;;31.10;90.30;;;;;;5053077;28;20486;-73
2022/08/09 07:42:23;;;;;;;7.57;4.10;;;30.60;90.30;;;;;;5060742;28;20029;-74
2022/08/09 07:44:50;;;;;;;5.13;3.78;;;30.60;90.10;;;;;;5054275;28;20028;-73
2022/08/09 07:47:16;;;;;;;7.90;4.13;;;30.20;89.90;;;;;;5060411;28;20032;-74
2022/08/09 07:49:42;;;;;;;7.55;4.65;;;30.70;89.20;;;;;;5058744;28;20029;-74
2022/08/09 07:52:08;;;;;;;7.30;4.32;;;30.60;90.10;;;;;;5053700;28;20033;-74
2022/08/09 07:54:34;;;;;;;9.48;4.40;;;30.00;90.00;;;;;;5059797;28;20115;-74
2022/08/09 07:56:59;;;;;;;6.38;4.65;;;27.90;92.40;;;;;;5058052;28;20036;-73
2022/08/09 07:59:25;;;;;;;4.70;3.45;;;26.30;94.30;;;;;;5055990;28;20133;-73
2022/08/09 08:01:52;;;;;;;6.30;3.88;;;25.10;95.30;;;;;;5071337;28;20099;-73
2022/08/09 08:04:18;;;;;;;6.45;4.45;;;25.00;95.80;;;;;;5056582;28;20526;-73
2022/08/09 08:06:43;;;;;;;6.07;4.25;;;24.90;95.90;;;;;;5062900;28;20053;-73
2022/08/09 08:09:09;;;;;;;9.30;4.88;;;24.80;95.80;;;;;;5062498;28;20478;-73
2022/08/09 08:11:37;;;;;;;6.90;4.05;;;24.80;96.20;;;;;;5064254;28;20029;-73
2022/08/09 08:14:02;;;;;;;8.55;4.22;;;24.60;96.00;;;;;;5060132;28;20033;-73
2022/08/09 08:16:28;;;;;;;7.68;3.92;;;24.60;96.20;;;;;;5057337;28;20036;-73
2022/08/09 08:18:54;;;;;;;6.93;3.80;;;24.50;95.20;;;;;;5060142;28;20040;-73
2022/08/09 08:21:20;;;;;;;6.45;3.85;;;24.70;95.60;;;;;;5062767;28;20381;-74
2022/08/09 08:23:45;;;;;;;5.72;4.00;;;24.70;95.50;;;;;;5058504;28;20033;-73
2022/08/09 08:26:11;;;;;;;7.53;4.50;;;26.10;93.40;;;;;;5053970;28;20040;-74
2022/08/09 08:28:36;;;;;;;6.10;4.22;;;27.70;92.90;;;;;;5065008;28;20043;-73
2022/08/09 08:31:02;;;;;;;7.60;3.70;;;29.10;91.70;;;;;;5056130;28;20033;-74
2022/08/09 08:33:28;;;;;;;4.60;3.40;;;29.70;91.40;;;;;;5062007;28;20594;-74
2022/08/09 08:35:54;;;;;;;6.13;4.07;;;29.30;90.80;;;;;;5061795;28;20087;-73
2022/08/09 08:38:20;;;;;;;5.70;4.28;;;29.70;89.10;;;;;;5057113;28;20505;-74
2022/08/09 08:40:45;;;;;;;5.95;3.28;;;29.10;90.50;;;;;;5058293;28;20099;-73
2022/08/09 08:43:12;;;;;;;5.65;3.58;;;29.30;91.10;;;;;;5061749;28;20068;-73
2022/08/09 08:45:48;;;;;;;8.85;3.50;;;29.10;90.60;;;;;;5058936;28;20491;-73
2022/08/09 08:48:13;;;;;;;7.70;3.80;;;29.00;91.10;;;;;;5061698;28;20074;-73
2022/08/09 08:50:39;;;;;;;6.47;4.10;;;28.60;91.00;;;;;;5059359;28;20036;-73
2022/08/09 08:53:06;;;;;;;9.75;3.85;;;28.00;91.60;;;;;;5056787;28;20036;-73
2022/08/09 08:55:31;;;;;;;5.32;3.38;;;27.50;92.80;;;;;;5059187;28;20037;-73
2022/08/09 08:57:57;;;;;;;4.40;3.10;;;27.20;93.40;;;;;;5061823;28;20151;-73
2022/08/09 09:00:24;;;;;;;5.63;3.67;;;26.70;92.70;;;;;;5058444;28;20048;-73
2022/08/09 09:02:50;;;;;;;4.85;2.95;;;27.00;92.50;;;;;;5055265;28;20036;-73
2022/08/09 09:05:23;;;;;;;5.57;3.15;;;26.70;92.80;;;;;;5060989;28;20873;-74
2022/08/09 09:07:51;;;;;;;7.22;3.67;;;26.60;92.90;;;;;;5061400;28;20036;-73
2022/08/09 09:10:17;;;;;;;4.60;3.30;;;26.60;92.50;;;;;;5057392;28;20401;-73
2022/08/09 09:12:45;;;;;;;5.18;3.30;;;26.80;92.60;;;;;;5054617;28;20071;-73
2022/08/09 09:15:11;;;;;;;6.05;2.95;;;26.70;92.80;;;;;;5056832;28;20108;-75
2022/08/09 09:17:37;;;;;;;10.60;3.55;;;26.80;93.40;;;;;;5056900;28;20136;-72
2022/08/09 09:20:11;;;;;;;4.53;3.30;;;26.70;92.50;;;;;;5056918;28;20124;-72
2022/08/09 09:22:57;;;;;;;4.45;2.83;;;26.30;92.10;;;;;;5055931;28;20119;-73
2022/08/09 09:25:39;;;;;;;5.82;3.35;;;26.70;92.00;;;;;;5060952;28;20028;-72
2022/08/09 09:28:06;;;;;;;5.50;2.85;;;26.80;92.10;;;;;;5061110;28;20136;-73
2022/08/09 09:30:33;;;;;;;5.05;3.13;;;26.80;92.10;;;;;;5040462;28;20379;-74
2022/08/09 09:33:05;;;;;;;5.45;2.65;;;27.00;92.60;;;;;;5055900;28;20059;-73
2022/08/09 09:35:30;;;;;;;4.38;2.67;;;27.30;92.10;;;;;;5059422;28;20651;-73
2022/08/09 09:37:56;;;;;;;4.88;2.92;;;27.30;92.00;;;;;;5057202;28;20037;-73
2022/08/09 09:40:41;;;;;;;4.07;2.70;;;27.40;91.10;;;;;;5054188;28;20025;-73
2022/08/09 09:43:06;;;;;;;3.97;2.53;;;27.30;91.20;;;;;;5058501;28;20108;-73
2022/08/09 09:45:49;;;;;;;5.97;2.85;;;27.50;91.10;;;;;;5057556;28;20120;-73
2022/08/09 09:48:16;;;;;;;6.80;2.40;;;27.60;89.90;;;;;;5063352;28;20074;-72
2022/08/09 09:50:43;;;;;;;4.32;2.47;;;27.90;90.10;;;;;;5057324;28;20036;-73
2022/08/09 09:53:18;;;;;;;4.43;2.45;;;28.00;90.70;;;;;;5060438;28;20119;-73
2022/08/09 09:55:59;;;;;;;5.60;2.75;;;28.30;90.50;;;;;;5057572;28;20102;-73
2022/08/09 09:58:42;;;;;;;5.03;2.65;;;28.00;90.10;;;;;;5060457;28;20037;-74
2022/08/09 10:01:20;;;;;;;3.78;2.50;;;28.10;89.50;;;;;;5061593;28;20533;-73
2022/08/09 10:03:50;;;;;;;3.90;2.38;;;27.60;88.10;;;;;;5057389;28;20021;-73
2022/08/09 10:06:17;;;;;;;4.20;2.55;;;27.60;89.90;;;;;;5052462;28;20033;-73
2022/08/09 10:08:45;;;;;;;3.75;2.65;;;28.00;89.30;;;;;;5061024;28;20056;-73
2022/08/09 10:11:23;;;;;;;4.53;2.80;;;27.80;88.60;;;;;;5054060;28;20040;-73
2022/08/09 10:13:51;;;;;;;4.45;2.35;;;28.10;89.50;;;;;;5058128;28;20435;-73
2022/08/09 10:16:30;;;;;;;3.85;2.10;;;28.50;90.40;;;;;;5061617;28;20028;-73
2022/08/09 10:19:01;;;;;;;4.78;1.98;;;28.80;88.50;;;;;;5056985;28;20033;-73
2022/08/09 10:21:27;;;;;;;4.47;2.90;;;29.00;89.50;;;;;;5060046;28;20120;-74
2022/08/09 10:23:59;;;;;;;4.10;2.80;;;29.40;88.80;;;;;;5059895;28;20111;-73
2022/08/09 10:26:25;;;;;;;3.85;2.30;;;29.40;87.30;;;;;;5059297;28;20024;-74
2022/08/09 10:28:52;;;;;;;4.32;2.20;;;29.30;87.40;;;;;;5055131;28;20375;-73
2022/08/09 10:31:19;;;;;;;4.75;2.30;;;29.40;87.90;;;;;;5060752;28;20097;-73
2022/08/09 10:33:45;;;;;;;3.40;2.20;;;29.80;87.80;;;;;;5057259;28;20032;-73
2022/08/09 10:36:12;;;;;;;3.42;2.00;;;30.00;85.00;;;;;;5056446;28;20036;-73
2022/08/09 10:38:43;;;;;;;3.80;1.88;;;29.70;85.10;;;;;;5062337;28;20467;-74
2022/08/09 10:41:09;;;;;;;5.82;2.13;;;29.50;84.70;;;;;;5052928;28;20037;-74
2022/08/09 10:43:36;;;;;;;3.20;1.90;;;29.60;85.60;;;;;;5059482;28;20032;-74
2022/08/09 10:46:23;;;;;;;3.65;1.80;;;30.00;84.50;;;;;;5061904;28;20040;-74
2022/08/09 10:48:54;;;;;;;24.00;3.35;;;30.10;84.70;;;;;;5058375;28;20056;-74
2022/08/09 10:51:31;;;;;;;5.25;2.10;;;29.90;85.50;;;;;;5054097;28;20056;-74
2022/08/09 10:54:04;;;;;;;4.53;2.50;;;29.50;83.40;;;;;;5056394;28;20037;-74
2022/08/09 10:56:35;;;;;;;3.83;1.80;;;29.70;83.40;;;;;;5059270;28;20028;-74
2022/08/09 10:59:21;;;;;;;3.58;2.00;;;30.00;84.70;;;;;;5056847;28;20037;-74
2022/08/09 11:01:51;;;;;;;3.85;2.33;;;29.90;84.10;;;;;;5059570;28;20048;-73
2022/08/09 11:04:25;;;;;;;6.15;2.35;;;30.10;83.80;;;;;;5059268;28;20143;-74
2022/08/09 11:07:00;;;;;;;4.65;2.25;;;30.10;86.80;;;;;;5049192;28;20043;-74
2022/08/09 11:09:37;;;;;;;3.38;2.05;;;30.20;86.20;;;;;;5052024;28;20045;-74
2022/08/09 11:12:13;;;;;;;4.15;2.20;;;30.00;85.80;;;;;;5060720;28;20029;-75
2022/08/09 11:14:50;;;;;;;2.78;2.00;;;30.20;85.20;;;;;;5053794;28;20459;-74
2022/08/09 11:17:15;;;;;;;3.83;2.17;;;30.10;82.20;;;;;;5062886;28;20457;-74
2022/08/09 11:19:54;;;;;;;3.75;2.13;;;29.90;83.20;;;;;;5059393;28;20044;-74
2022/08/09 11:22:42;;;;;;;3.67;1.98;;;30.10;84.90;;;;;;5056196;28;20062;-73
2022/08/09 11:25:32;;;;;;;3.40;1.92;;;30.30;86.00;;;;;;5062211;28;20062;-72
2022/08/09 11:27:57;;;;;;;5.07;2.13;;;30.00;82.30;;;;;;5053186;28;20025;-72
2022/08/09 11:30:26;;;;;;;3.05;1.90;;;30.00;86.60;;;;;;5057140;28;20033;-71
2022/08/09 11:33:00;;;;;;;7.32;2.08;;;30.00;84.80;;;;;;5060088;28;20036;-72
2022/08/09 11:35:41;;;;;;;4.10;2.20;;;30.10;86.40;;;;;;5060223;28;20043;-72
2022/08/09 11:38:22;;;;;;;3.97;1.92;;;30.30;85.70;;;;;;5057219;28;20037;-71
2022/08/09 11:40:50;;;;;;;3.50;2.00;;;30.60;85.10;;;;;;5031645;28;20547;-72
2022/08/09 11:43:25;;;;;;;3.10;1.88;;;30.50;83.90;;;;;;5050764;28;20419;-71
2022/08/09 11:45:56;;;;;;;3.45;1.50;;;30.70;82.40;;;;;;5051239;28;20028;-72
2022/08/09 11:48:32;;;;;;;2.17;1.35;;;30.70;82.40;;;;;;5055538;28;20037;-72
2022/08/09 11:50:57;;;;;;;4.10;1.45;;;30.70;82.10;;;;;;5052989;28;20064;-72
2022/08/09 11:53:26;;;;;;;2.55;1.40;;;31.00;80.90;;;;;;5056062;28;20063;-72
2022/08/09 11:56:19;;;;;;;2.33;1.20;;;31.00;79.20;;;;;;5054863;28;20676;-72
2022/08/09 11:58:55;;;;;;;4.30;1.33;;;31.00;79.20;;;;;;5052647;28;20072;-71
2022/08/09 12:01:50;;;;;;;2.47;1.15;;;30.80;76.80;;;;;;5049804;28;20056;-72
2022/08/09 12:04:16;;;;;;;3.08;1.25;;;30.70;76.30;;;;;;5037619;28;20055;-71
2022/08/09 12:06:50;;;;;;;1.90;1.15;;;30.80;78.20;;;;;;5055381;28;20107;-71
2022/08/09 12:09:15;;;;;;;2.53;1.20;;;30.90;73.40;;;;;;5055976;28;20147;-72
2022/08/09 12:11:41;;;;;;;3.00;1.60;;;30.90;72.50;;;;;;5054572;28;20123;-71
2022/08/09 12:14:09;;;;;;;2.90;1.70;;;31.00;77.60;;;;;;5053251;28;20033;-72
2022/08/09 12:16:42;;;;;;;3.50;1.50;;;31.10;79.10;;;;;;5050514;28;20024;-71
2022/08/09 12:19:10;;;;;;;3.00;1.67;;;31.20;79.60;;;;;;5050922;28;20098;-72
2022/08/09 12:21:43;;;;;;;3.60;1.30;;;31.10;76.10;;;;;;5055736;28;20033;-71
2022/08/09 12:24:10;;;;;;;3.35;1.55;;;31.00;78.20;;;;;;5050835;28;20033;-72
2022/08/09 12:26:44;;;;;;;2.38;1.40;;;31.20;76.10;;;;;;5049384;28;20075;-72
2022/08/09 12:29:17;;;;;;;2.65;1.20;;;31.20;75.60;;;;;;5048631;28;20098;-72
2022/08/09 12:31:44;;;;;;;;;;;31.50;74.70;;;;;;5055796;28;20025;-72
2022/08/09 12:34:09;;;;;;;2.33;1.30;;;31.40;72.30;;;;;;5036468;28;20790;-71
2022/08/09 12:36:50;;;;;;;2.45;1.20;;;31.60;77.80;;;;;;5049791;28;20107;-72
2022/08/09 12:39:15;;;;;;;2.03;1.20;;;31.70;75.40;;;;;;5050179;28;20125;-72
2022/08/09 12:41:41;;;;;;;3.88;1.45;;;31.50;72.50;;;;;;5058903;28;20087;-72
2022/08/09 12:44:07;;;;;;;3.13;1.50;;;31.50;76.30;;;;;;5052812;28;20028;-71
2022/08/09 12:46:33;;;;;;;4.28;1.50;;;31.80;76.60;;;;;;5059169;28;20037;-71
2022/08/09 12:49:02;;;;;;;2.80;1.65;;;31.60;75.40;;;;;;5057899;28;20036;-71
2022/08/09 12:51:27;;;;;;;2.90;1.67;;;31.50;74.10;;;;;;5057595;28;20029;-71
2022/08/09 12:53:59;;;;;;;4.55;1.60;;;31.70;76.20;;;;;;5059667;28;20032;-71
2022/08/09 12:56:25;;;;;;;3.65;1.77;;;31.90;77.40;;;;;;5061862;28;20254;-71